muzikum.eu alexa rank chart, muzikum.eu alexa rank daily changes

muzikum.eu alexa rank chart, muzikum.eu alexa rank daily changes

muzikum.eu
Actual rank:
82 694

RANK HISTORY

Date Rank Diff
2018/06/16 82 694 +5 362
2018/06/15 77 332 -20 560
2018/06/14 97 892 +16 720
2018/06/13 81 172 +2 566
2018/06/12 78 606 +202
2018/06/11 78 404 -17 742
2018/06/10 96 146 -42 839
2018/06/09 138 985 +17 371
2018/06/08 121 614 -3 282
2018/06/07 124 896 -16 830
2018/06/06 141 726 +31 072
2018/06/05 110 654 +73 009
2018/06/04 37 645 -80 759
2018/06/03 118 404 -17 251
2018/06/02 135 655 -1 080
2018/06/01 136 735 +31 614
2018/05/31 105 121 -73 684
2018/05/30 178 805 +49 507
2018/05/29 129 298 +28 714
2018/05/28 100 584 -11 767
2018/05/27 112 351 -21 873
2018/05/26 134 224 +62 573
2018/05/25 71 651 -50 568
2018/05/24 122 219 -127 416
2018/05/23 249 635 +166 672
2018/05/22 82 963 -101 989
2018/05/21 184 952 +22 952
2018/05/20 162 000 +67 011
2018/05/19 94 989 +8 124
2018/05/18 86 865 -47 443
2018/05/17 134 308 -18 841
2018/05/16 153 149 +48 543
2018/05/15 104 606 -57 336
2018/05/14 161 942 +86 263
2018/05/13 75 679 -32 938
2018/05/12 108 617 -88 293
2018/05/11 196 910 +11 788
2018/05/10 185 122 +104 091
2018/05/09 81 031 -149 424
2018/05/08 230 455 +108 167
2018/05/07 122 288 -39 616
2018/05/06 161 904 +38 515
2018/05/05 123 389 -26 326
2018/05/04 149 715 +34 047
2018/05/03 115 668 -14 610
2018/05/02 130 278 +37 746
2018/05/01 92 532 -122 994
2018/04/30 215 526 +58 491
2018/04/29 157 035 -72 661
2018/04/28 229 696 +78 994
2018/04/27 150 702 -5 478
2018/04/26 156 180 -184 345
2018/04/25 340 525 +206 023
2018/04/24 134 502 -16 200
2018/04/23 150 702 -87 895
2018/04/22 238 597 +86 841
2018/04/21 151 756 -35 138
2018/04/20 186 894 +4 092
2018/04/19 182 802 +112 147
2018/04/18 70 655 -28 673
2018/04/17 99 328

WIDGET FOR YOUR SITE

DOMAINS WITH THE NEAREST RANK

Domain Rank
showstudio.com 82 689
saudiatv.sa 82 690
direktno.hr 82 691
at.govt.nz 82 692
freesextuber.com 82 693
muzikum.eu 82 694
narutonine.com 82 695
rulaws.ru 82 696
krugosvet.ru 82 697
knews.kg 82 698
gradschoolhub.com 82 699

DOMAINS WITH THE NEAREST RANK BY TLD .eu

Domain Rank
furunbao.eu 80 097
gofirstrow.eu 80 579
supermoney.eu 81 295
epitech.eu 81 996
autobahn.eu 82 014
muzikum.eu 82 694
catawiki.eu 82 739
justnetwork.eu 82 772
nudistvid.eu 83 305
space53.eu 83 851
ntm.eu 84 247